National Weather Service Raw Text Product

Displaying AFOS PIL: TAFMCW Received: 2018-04-17 11:42 UTC


685 
FTUS43 KDMX 171142
TAFMCW
TAF
KMCW 171142Z 1712/1812 33007KT P6SM SKC
     FM172000 06007KT P6SM SCT180
     FM180400 08009KT P6SM BKN060
     FM180900 07012KT P6SM -PL OVC035
     FM181000 06012KT 3SM -SN OVC028=